Buel, New York
Current Conditions -  °F | °C
As of 3:35 PM on Wednesday 26 Nov 2014 (Local Time) from KNY0 Reporting Station
Overcast Overcast  
Wind Chill: 21°   Ceiling: 600
Heat Index: 29°   Visibility: 0.75mi
Dew Point: 28°   Wind: 8mph
Humidity: 95%   Direction: 40°NE
Pressure: 30.01"   Gusts: NA
Location:  42.8548°N, 74.5942°W
Report Text: KNY0 262035Z AUTO 04007KT 3/4SM OVC006 M02/M02 A3001 RMK AO2 P0001 T10161023
Loading
Personal Weather Stations






























Interactive Weather Map New forecast layout! Learn more

10-Day Weather Forecast

Advertisements
Track Severe Weather on mobile